createdAt,value
2022-09-04T00:02:23.552Z,16.13
2022-09-04T00:04:59.676Z,16.07
2022-09-04T00:07:29.585Z,16.11
2022-09-04T00:10:09.985Z,16.04
2022-09-04T00:12:45.270Z,16.05
2022-09-04T00:15:17.166Z,15.93
2022-09-04T00:17:54.408Z,15.97
2022-09-04T00:20:31.521Z,15.99
2022-09-04T00:23:05.214Z,15.99
2022-09-04T00:25:41.215Z,16.01
2022-09-04T00:28:17.259Z,15.95
2022-09-04T00:30:50.078Z,15.88
2022-09-04T00:33:27.274Z,15.87
2022-09-04T00:35:59.026Z,15.90
2022-09-04T00:38:38.122Z,15.76
2022-09-04T00:41:14.606Z,15.79
2022-09-04T00:44:13.334Z,15.77
2022-09-04T00:47:02.617Z,15.68
2022-09-04T00:50:03.818Z,15.69
2022-09-04T00:52:57.387Z,15.68
2022-09-04T00:55:43.846Z,15.59
2022-09-04T00:58:27.080Z,15.56
2022-09-04T01:00:58.000Z,15.45
2022-09-04T01:03:52.831Z,15.43
2022-09-04T01:06:45.021Z,15.43
2022-09-04T01:09:30.606Z,15.37
2022-09-04T01:12:11.810Z,15.30
2022-09-04T01:14:46.522Z,15.29
2022-09-04T01:17:27.602Z,15.23
2022-09-04T01:20:03.188Z,15.18
2022-09-04T01:23:00.557Z,15.10
2022-09-04T01:25:42.241Z,15.15
2022-09-04T01:28:20.820Z,15.06
2022-09-04T01:31:01.101Z,15.05
2022-09-04T01:33:37.055Z,14.99
2022-09-04T01:36:12.969Z,14.96
2022-09-04T01:38:45.542Z,14.99
2022-09-04T01:41:20.318Z,14.93
2022-09-04T01:43:47.887Z,14.89
2022-09-04T01:46:35.380Z,14.82
2022-09-04T01:49:11.900Z,14.87
2022-09-04T01:51:45.519Z,14.80
2022-09-04T01:54:41.031Z,14.79
2022-09-04T01:57:20.444Z,14.80
2022-09-04T02:00:01.753Z,14.68
2022-09-04T02:02:40.570Z,14.66
2022-09-04T02:05:17.143Z,14.63
2022-09-04T02:07:48.653Z,14.71
2022-09-04T02:10:30.075Z,14.63
2022-09-04T02:13:13.092Z,14.58
2022-09-04T02:15:47.820Z,14.54
2022-09-04T02:18:26.029Z,14.46
2022-09-04T02:20:59.894Z,14.43
2022-09-04T02:23:37.409Z,14.38
2022-09-04T02:26:13.562Z,14.44
2022-09-04T02:28:54.349Z,14.45
2022-09-04T02:31:30.148Z,14.43
2022-09-04T02:34:06.341Z,14.40
2022-09-04T02:36:41.758Z,14.30
2022-09-04T02:39:19.586Z,14.35
2022-09-04T02:41:59.233Z,14.23
2022-09-04T02:44:48.232Z,14.19
2022-09-04T02:47:24.080Z,14.14
2022-09-04T02:49:59.476Z,14.15
2022-09-04T02:52:48.648Z,14.16
2022-09-04T02:55:26.721Z,14.21
2022-09-04T02:58:07.830Z,14.06
2022-09-04T03:00:50.022Z,14.04
2022-09-04T03:03:21.272Z,14.03
2022-09-04T03:05:56.748Z,13.99
2022-09-04T03:08:34.419Z,13.95
2022-09-04T03:11:14.026Z,13.96
2022-09-04T03:13:49.956Z,13.88
2022-09-04T03:16:24.342Z,13.83
2022-09-04T03:19:10.397Z,13.79
2022-09-04T03:21:46.441Z,13.82
2022-09-04T03:24:22.388Z,13.77
2022-09-04T03:26:52.793Z,13.76
2022-09-04T03:29:29.319Z,13.68
2022-09-04T03:32:15.993Z,13.69
2022-09-04T03:34:51.601Z,13.67
2022-09-04T03:37:44.932Z,13.61
2022-09-04T03:40:25.449Z,13.60
2022-09-04T03:43:26.198Z,13.62
2022-09-04T03:46:01.376Z,13.55
2022-09-04T03:48:58.890Z,13.54
2022-09-04T03:51:34.193Z,13.54
2022-09-04T03:54:11.423Z,13.57
2022-09-04T03:56:57.873Z,13.50
2022-09-04T03:59:39.676Z,13.47
2022-09-04T04:02:13.964Z,13.47
2022-09-04T04:05:08.051Z,13.45
2022-09-04T04:07:48.431Z,13.44
2022-09-04T04:10:26.726Z,13.36
2022-09-04T04:13:21.356Z,13.38
2022-09-04T04:16:04.105Z,13.45
2022-09-04T04:18:57.741Z,13.42
2022-09-04T04:21:38.759Z,13.45
2022-09-04T04:24:35.197Z,13.38
2022-09-04T04:27:18.935Z,13.38
2022-09-04T04:30:02.848Z,13.37
2022-09-04T04:32:45.443Z,13.36
2022-09-04T04:35:23.789Z,13.37
2022-09-04T04:38:14.821Z,13.38
2022-09-04T04:41:12.331Z,13.35
2022-09-04T04:43:55.003Z,13.33
2022-09-04T04:46:39.679Z,13.35
2022-09-04T04:49:32.700Z,13.36
2022-09-04T04:52:20.521Z,13.36
2022-09-04T04:55:04.475Z,13.41
2022-09-04T04:57:42.779Z,13.46
2022-09-04T05:00:13.277Z,13.52
2022-09-04T05:02:51.554Z,13.48
2022-09-04T05:05:24.663Z,13.49
2022-09-04T05:08:05.088Z,13.55
2022-09-04T05:10:43.391Z,13.65
2022-09-04T05:13:22.933Z,13.74
2022-09-04T05:16:09.078Z,13.89
2022-09-04T05:18:47.544Z,13.98
2022-09-04T05:21:22.558Z,14.03
2022-09-04T05:23:57.938Z,14.13
2022-09-04T05:26:33.623Z,14.20
2022-09-04T05:29:09.647Z,14.28
2022-09-04T05:31:45.168Z,14.33
2022-09-04T05:34:21.592Z,14.28
2022-09-04T05:37:00.441Z,14.26
2022-09-04T05:39:30.666Z,14.25
2022-09-04T05:42:19.498Z,14.24
2022-09-04T05:44:57.432Z,14.21
2022-09-04T05:47:34.309Z,14.24
2022-09-04T05:50:22.482Z,14.20
2022-09-04T05:53:04.928Z,14.24
2022-09-04T05:55:46.911Z,14.25
2022-09-04T05:58:49.669Z,14.22
2022-09-04T06:01:38.268Z,14.23
2022-09-04T06:04:31.797Z,14.25
2022-09-04T06:07:09.407Z,14.29
2022-09-04T06:09:51.320Z,14.36
2022-09-04T06:12:52.342Z,14.45
2022-09-04T06:15:33.349Z,14.54
2022-09-04T06:18:40.442Z,14.69
2022-09-04T06:21:26.201Z,14.74
2022-09-04T06:24:16.059Z,14.89
2022-09-04T06:27:02.618Z,14.94
2022-09-04T06:29:49.966Z,15.10
2022-09-04T06:32:40.869Z,15.16
2022-09-04T06:35:27.086Z,15.25
2022-09-04T06:38:05.855Z,15.23
2022-09-04T06:40:48.563Z,15.28
2022-09-04T06:43:23.939Z,15.35
2022-09-04T06:46:10.891Z,15.48
2022-09-04T06:48:52.106Z,15.57
2022-09-04T06:51:32.868Z,15.67
2022-09-04T06:54:09.249Z,15.79
2022-09-04T06:56:51.011Z,15.93
2022-09-04T06:59:37.075Z,16.05
2022-09-04T07:02:19.776Z,16.23
2022-09-04T07:05:03.447Z,16.28
2022-09-04T07:07:42.739Z,16.32
2022-09-04T07:10:14.866Z,16.45
2022-09-04T07:13:27.313Z,16.56
2022-09-04T07:16:15.378Z,16.69
2022-09-04T07:19:00.432Z,16.85
2022-09-04T07:21:35.361Z,17.01
2022-09-04T07:24:07.445Z,17.12
2022-09-04T07:26:41.546Z,17.19
2022-09-04T07:29:25.814Z,17.30
2022-09-04T07:32:00.566Z,17.30
2022-09-04T07:34:38.409Z,17.24
2022-09-04T07:37:18.555Z,17.36
2022-09-04T07:39:54.593Z,17.51
2022-09-04T07:42:30.888Z,17.62
2022-09-04T07:45:06.006Z,17.82
2022-09-04T07:47:38.249Z,17.96
2022-09-04T07:50:10.763Z,18.09
2022-09-04T07:53:02.578Z,18.22
2022-09-04T07:55:38.131Z,18.38
2022-09-04T07:58:49.331Z,18.49
2022-09-04T08:01:40.162Z,18.59
2022-09-04T08:04:39.952Z,18.65
2022-09-04T08:07:15.198Z,18.82
2022-09-04T08:10:06.500Z,19.06
2022-09-04T08:12:56.246Z,19.24
2022-09-04T08:15:35.447Z,19.21
2022-09-04T08:18:35.845Z,19.31
2022-09-04T08:21:15.359Z,19.22
2022-09-04T08:24:17.569Z,19.32
2022-09-04T08:26:58.879Z,19.49
2022-09-04T08:29:57.920Z,19.58
2022-09-04T08:32:47.404Z,19.71
2022-09-04T08:35:22.968Z,19.85
2022-09-04T08:38:06.321Z,20.01
2022-09-04T08:41:14.390Z,20.10
2022-09-04T08:44:13.166Z,20.18
2022-09-04T08:47:18.746Z,20.34
2022-09-04T08:50:08.315Z,20.40
2022-09-04T08:53:05.882Z,20.58
2022-09-04T08:55:46.725Z,20.79
2022-09-04T08:59:07.967Z,20.88
2022-09-04T09:02:14.241Z,21.02
2022-09-04T09:05:08.031Z,21.05
2022-09-04T09:14:21.113Z,21.65
2022-09-04T09:17:05.215Z,21.88
2022-09-04T09:19:44.349Z,22.00
2022-09-04T09:22:36.347Z,22.07
2022-09-04T09:25:19.289Z,22.10
2022-09-04T09:28:40.367Z,22.17
2022-09-04T09:31:43.636Z,22.34
2022-09-04T09:34:39.144Z,22.42
2022-09-04T09:37:33.859Z,22.66
2022-09-04T09:40:29.509Z,22.88
2022-09-04T09:43:37.819Z,22.92
2022-09-04T09:46:37.169Z,23.23
2022-09-04T09:52:31.230Z,23.69
2022-09-04T09:55:28.897Z,24.46
2022-09-04T09:58:23.737Z,26.43
2022-09-04T10:01:08.288Z,27.82
2022-09-04T10:04:21.891Z,26.76
2022-09-04T10:07:31.129Z,28.35
2022-09-04T10:10:26.928Z,28.27
2022-09-04T10:13:36.235Z,29.52
2022-09-04T10:16:33.288Z,28.89
2022-09-04T10:19:29.071Z,30.16
2022-09-04T10:22:37.500Z,29.82
2022-09-04T10:25:32.682Z,28.14
2022-09-04T10:28:38.039Z,28.80
2022-09-04T10:31:30.683Z,28.86
2022-09-04T10:34:19.246Z,29.00
2022-09-04T10:36:59.236Z,28.99
2022-09-04T10:39:42.157Z,27.95
2022-09-04T10:42:31.509Z,27.98
2022-09-04T10:45:16.476Z,29.44
2022-09-04T10:48:19.645Z,28.57
2022-09-04T10:51:22.607Z,28.47
2022-09-04T10:54:14.874Z,28.95
2022-09-04T10:56:54.289Z,29.47
2022-09-04T10:59:46.400Z,29.58
2022-09-04T11:02:52.455Z,29.56
2022-09-04T11:05:30.662Z,29.44
2022-09-04T11:08:23.041Z,30.64
2022-09-04T11:11:30.838Z,30.10
2022-09-04T11:14:31.866Z,29.67
2022-09-04T11:17:31.920Z,30.42
2022-09-04T11:20:35.808Z,30.63
2022-09-04T11:23:38.460Z,31.57
2022-09-04T11:26:46.177Z,31.27
2022-09-04T11:29:32.605Z,31.05
2022-09-04T11:32:50.321Z,30.85
2022-09-04T11:35:55.200Z,30.81
2022-09-04T11:38:56.173Z,29.93
2022-09-04T11:41:58.769Z,29.94
2022-09-04T11:44:51.830Z,30.70
2022-09-04T11:47:55.895Z,30.75
2022-09-04T11:50:55.530Z,31.76
2022-09-04T11:53:59.594Z,32.21
2022-09-04T11:56:40.404Z,32.62
2022-09-04T11:59:27.069Z,31.87
2022-09-04T12:02:16.280Z,32.88
2022-09-04T12:04:58.249Z,31.58
2022-09-04T12:07:43.619Z,31.52
2022-09-04T12:10:23.159Z,31.20
2022-09-04T12:13:21.717Z,31.92
2022-09-04T12:16:09.367Z,32.06
2022-09-04T12:19:13.788Z,32.42
2022-09-04T12:22:07.467Z,31.85
2022-09-04T12:25:02.678Z,32.55
2022-09-04T12:28:08.888Z,31.39
2022-09-04T12:30:53.561Z,30.79
2022-09-04T12:33:46.766Z,30.84
2022-09-04T12:36:32.625Z,31.87
2022-09-04T12:39:40.379Z,32.92
2022-09-04T12:42:15.540Z,32.47
2022-09-04T12:44:56.101Z,32.13
2022-09-04T12:47:36.628Z,32.17
2022-09-04T12:50:21.918Z,32.35
2022-09-04T12:53:04.962Z,31.52
2022-09-04T12:55:41.239Z,33.35
2022-09-04T12:58:25.404Z,32.62
2022-09-04T13:01:02.519Z,31.95
2022-09-04T13:03:39.025Z,30.88
2022-09-04T13:06:18.977Z,31.18
2022-09-04T13:09:04.452Z,31.83
2022-09-04T13:11:44.083Z,32.36
2022-09-04T13:14:39.560Z,32.55
2022-09-04T13:17:15.865Z,32.69
2022-09-04T13:19:51.866Z,32.71
2022-09-04T13:22:27.583Z,32.93
2022-09-04T13:25:06.385Z,32.39
2022-09-04T13:27:46.120Z,32.35
2022-09-04T13:30:18.966Z,32.54
2022-09-04T13:33:12.574Z,32.68
2022-09-04T13:35:52.128Z,33.47
2022-09-04T13:38:39.532Z,33.63
2022-09-04T13:41:32.982Z,33.91
2022-09-04T13:44:29.523Z,32.13
2022-09-04T13:47:03.657Z,31.93
2022-09-04T13:49:39.013Z,32.17
2022-09-04T13:52:10.171Z,33.41
2022-09-04T13:54:42.973Z,33.19
2022-09-04T13:57:16.214Z,32.48
2022-09-04T13:59:46.427Z,32.67
2022-09-04T14:02:18.867Z,32.42
2022-09-04T14:04:49.577Z,31.78
2022-09-04T14:07:20.948Z,31.38
2022-09-04T14:09:50.810Z,31.27
2022-09-04T14:13:02.727Z,30.56
2022-09-04T14:16:01.579Z,30.78
2022-09-04T14:18:58.145Z,31.16
2022-09-04T14:21:37.835Z,31.86
2022-09-04T14:24:17.442Z,32.22
2022-09-04T14:26:52.627Z,32.26
2022-09-04T14:29:28.424Z,32.99
2022-09-04T14:32:08.625Z,32.68
2022-09-04T14:34:48.539Z,32.25
2022-09-04T14:37:32.603Z,32.87
2022-09-04T14:40:08.133Z,32.94
2022-09-04T14:42:44.404Z,33.16
2022-09-04T14:45:24.696Z,32.99
2022-09-04T14:47:55.592Z,32.78
2022-09-04T14:50:28.024Z,32.24
2022-09-04T14:52:57.580Z,32.54
2022-09-04T14:55:28.416Z,31.98
2022-09-04T14:58:02.268Z,32.75
2022-09-04T15:00:34.222Z,33.45
2022-09-04T15:03:08.337Z,33.14
2022-09-04T15:05:45.205Z,32.36
2022-09-04T15:08:25.723Z,32.67
2022-09-04T15:10:56.695Z,32.95
2022-09-04T15:13:50.920Z,32.89
2022-09-04T15:16:26.570Z,32.32
2022-09-04T15:19:04.053Z,32.13
2022-09-04T15:21:43.264Z,32.82
2022-09-04T15:24:21.256Z,31.78
2022-09-04T15:27:01.910Z,31.55
2022-09-04T15:29:37.070Z,32.23
2022-09-04T15:32:07.331Z,32.43
2022-09-04T15:34:41.569Z,32.13
2022-09-04T15:37:13.552Z,32.01
2022-09-04T15:39:50.791Z,33.60
2022-09-04T15:42:35.095Z,32.91
2022-09-04T15:45:09.909Z,32.76
2022-09-04T15:47:57.103Z,32.27
2022-09-04T15:50:28.440Z,32.91
2022-09-04T15:53:09.689Z,31.72
2022-09-04T15:55:39.971Z,31.70
2022-09-04T15:58:15.775Z,30.46
2022-09-04T16:01:10.889Z,30.04
2022-09-04T16:03:48.281Z,29.98
2022-09-04T16:06:24.093Z,30.30
2022-09-04T16:08:56.698Z,30.58
2022-09-04T16:11:29.931Z,30.04
2022-09-04T16:14:00.931Z,30.50
2022-09-04T16:16:33.977Z,29.98
2022-09-04T16:19:10.888Z,29.73
2022-09-04T16:21:48.078Z,29.84
2022-09-04T16:24:19.640Z,29.75
2022-09-04T16:26:50.715Z,30.02
2022-09-04T16:29:29.718Z,30.09
2022-09-04T16:31:58.285Z,30.08
2022-09-04T16:34:29.139Z,30.31
2022-09-04T16:37:04.783Z,29.94
2022-09-04T16:39:44.474Z,29.77
2022-09-04T16:42:23.604Z,30.42
2022-09-04T16:44:58.088Z,30.37
2022-09-04T16:47:33.656Z,30.15
2022-09-04T16:50:08.912Z,30.14
2022-09-04T16:53:12.806Z,29.30
2022-09-04T16:55:58.337Z,29.03
2022-09-04T16:58:37.989Z,28.58
2022-09-04T17:01:14.515Z,28.21
2022-09-04T17:04:04.128Z,28.17
2022-09-04T17:06:47.966Z,27.92
2022-09-04T17:09:22.793Z,27.48
2022-09-04T17:11:55.487Z,27.33
2022-09-04T17:14:28.324Z,27.06
2022-09-04T17:17:12.508Z,26.69
2022-09-04T17:20:05.387Z,26.99
2022-09-04T17:29:03.221Z,27.40
2022-09-04T17:29:12.870Z,27.95
2022-09-04T17:29:18.569Z,27.86
2022-09-04T17:31:29.405Z,27.86
2022-09-04T17:38:02.989Z,27.55
2022-09-04T17:40:38.725Z,26.63
2022-09-04T17:40:39.727Z,26.94
2022-09-04T17:42:45.221Z,26.39
2022-09-04T17:45:46.216Z,25.91
2022-09-04T17:48:24.531Z,25.85
2022-09-04T17:50:56.182Z,25.61
2022-09-04T17:53:34.242Z,25.43
2022-09-04T17:56:10.031Z,25.12
2022-09-04T17:58:45.954Z,25.05
2022-09-04T18:01:24.089Z,24.88
2022-09-04T18:04:20.605Z,24.87
2022-09-04T18:06:57.440Z,24.71
2022-09-04T18:09:32.444Z,24.52
2022-09-04T18:12:06.448Z,24.39
2022-09-04T18:14:41.958Z,24.28
2022-09-04T18:17:17.856Z,24.18
2022-09-04T18:19:47.102Z,24.05
2022-09-04T18:22:33.207Z,23.95
2022-09-04T18:25:15.740Z,23.82
2022-09-04T18:28:06.359Z,23.76
2022-09-04T18:37:10.472Z,23.72
2022-09-04T18:37:20.410Z,23.36
2022-09-04T18:37:24.171Z,23.54
2022-09-04T18:39:37.398Z,23.38
2022-09-04T18:46:51.508Z,23.30
2022-09-04T18:50:45.117Z,23.11
2022-09-04T18:50:51.228Z,23.20
2022-09-04T18:51:18.789Z,22.96
2022-09-04T18:53:53.065Z,22.90
2022-09-04T18:56:26.459Z,22.84
2022-09-04T18:59:00.273Z,22.73
2022-09-04T19:01:38.490Z,22.68
2022-09-04T19:04:31.011Z,22.77
2022-09-04T19:07:07.633Z,22.64
2022-09-04T19:09:58.115Z,22.58
2022-09-04T19:12:46.729Z,22.47
2022-09-04T19:15:49.314Z,22.44
2022-09-04T19:18:23.891Z,22.36
2022-09-04T19:20:58.128Z,22.31
2022-09-04T19:23:34.255Z,22.22
2022-09-04T19:26:11.030Z,22.12
2022-09-04T19:28:45.723Z,22.08
2022-09-04T19:31:30.267Z,22.03
2022-09-04T19:34:04.946Z,21.94
2022-09-04T19:36:38.616Z,22.04
2022-09-04T19:46:07.786Z,21.91
2022-09-04T19:46:11.954Z,21.81
2022-09-04T19:46:18.032Z,21.82
2022-09-04T19:48:15.651Z,21.72
2022-09-04T19:53:19.617Z,21.68
2022-09-04T19:53:42.750Z,21.61
2022-09-04T19:56:28.337Z,21.54
2022-09-04T19:59:02.489Z,21.48
2022-09-04T20:01:43.683Z,21.48
2022-09-04T20:04:23.581Z,21.35
2022-09-04T20:06:54.466Z,21.34
2022-09-04T20:09:30.181Z,21.25
2022-09-04T20:12:13.368Z,21.17
2022-09-04T20:14:45.860Z,21.16
2022-09-04T20:17:30.714Z,21.05
2022-09-04T20:20:02.721Z,21.05
2022-09-04T20:22:35.958Z,21.01
2022-09-04T20:25:27.207Z,20.96
2022-09-04T20:28:07.682Z,20.86
2022-09-04T20:30:37.157Z,20.75
2022-09-04T20:33:10.209Z,20.76
2022-09-04T20:35:42.966Z,20.72
2022-09-04T20:38:23.548Z,20.68
2022-09-04T20:40:55.813Z,20.63
2022-09-04T20:43:33.431Z,20.56
2022-09-04T20:51:11.139Z,20.61
2022-09-04T20:52:56.433Z,20.56
2022-09-04T20:52:58.059Z,20.48
2022-09-04T20:55:17.090Z,20.45
2022-09-04T21:02:53.300Z,20.46
2022-09-04T21:03:07.337Z,20.36
2022-09-04T21:04:07.633Z,20.24
2022-09-04T21:06:45.032Z,20.32
2022-09-04T21:09:29.552Z,20.23
2022-09-04T21:12:15.907Z,20.23
2022-09-04T21:14:47.938Z,20.16
2022-09-04T21:17:44.568Z,20.21
2022-09-04T21:20:59.380Z,20.10
2022-09-04T21:23:56.554Z,20.09
2022-09-04T21:26:45.706Z,20.02
2022-09-04T21:29:35.526Z,19.92
2022-09-04T21:32:28.885Z,19.92
2022-09-04T21:35:12.288Z,19.84
2022-09-04T21:37:47.484Z,19.86
2022-09-04T21:40:49.920Z,19.88
2022-09-04T21:43:36.463Z,19.78
2022-09-04T21:46:23.497Z,19.70
2022-09-04T21:49:26.253Z,19.73
2022-09-04T21:52:25.883Z,19.75
2022-09-04T21:57:56.359Z,19.69
2022-09-04T22:02:26.992Z,19.67
2022-09-04T22:02:39.896Z,19.57
2022-09-04T22:04:15.112Z,19.52
2022-09-04T22:09:05.319Z,19.51
2022-09-04T22:13:34.833Z,19.37
2022-09-04T22:13:39.419Z,19.38
2022-09-04T22:16:04.134Z,19.38
2022-09-04T22:18:49.017Z,19.34
2022-09-04T22:21:26.105Z,19.36
2022-09-04T22:24:25.690Z,19.29
2022-09-04T22:27:37.730Z,19.27
2022-09-04T22:30:22.196Z,19.23
2022-09-04T22:33:48.396Z,19.27
2022-09-04T22:37:00.435Z,19.21
2022-09-04T22:39:50.664Z,19.18
2022-09-04T22:42:39.052Z,19.12
2022-09-04T22:45:39.638Z,19.13
2022-09-04T22:48:47.934Z,19.06
2022-09-04T22:52:09.956Z,19.04
2022-09-04T22:54:59.171Z,19.03
2022-09-04T22:57:45.720Z,18.99
2022-09-04T23:00:17.034Z,18.96
2022-09-04T23:03:26.200Z,18.92
2022-09-04T23:07:47.063Z,18.90
2022-09-04T23:13:48.348Z,18.85
2022-09-04T23:13:50.374Z,18.82
2022-09-04T23:16:09.831Z,18.80
2022-09-04T23:21:10.551Z,18.81
2022-09-04T23:26:37.638Z,18.72
2022-09-04T23:26:50.722Z,18.75
2022-09-04T23:28:27.202Z,18.65
2022-09-04T23:31:11.729Z,18.61
2022-09-04T23:34:00.481Z,18.54
2022-09-04T23:36:56.229Z,18.55
2022-09-04T23:40:00.709Z,18.58
2022-09-04T23:42:49.690Z,18.51
2022-09-04T23:45:38.215Z,18.44
2022-09-04T23:48:40.583Z,18.39
2022-09-04T23:51:20.731Z,18.39
2022-09-04T23:54:00.096Z,18.33
2022-09-04T23:56:35.461Z,18.32
2022-09-04T23:59:21.100Z,18.30
